Lewisville, Ohio
Current Conditions -  °F | °C
As of 12:53 AM on Wednesday 22 Oct 2014 (Local Time) from KPKB Reporting Station
Overcast Overcast  
Wind Chill: 43°   Ceiling: 1500
Heat Index: 47°   Visibility: 10mi
Dew Point: 41°   Wind: 8mph
Humidity: 80%   Direction: 320°NW
Pressure: 30.11"   Gusts: NA
Location:  39.77°N, 81.22°W
Report Text: KPKB 220453Z AUTO 32007KT 10SM OVC015 08/05 A3011 RMK AO2 RAB26E35 SLP197 P0000 T00830050 401170078
Loading
Personal Weather Stations






























Interactive Weather Map
Tropical Storm Tracking
New forecast layout! Learn more

10-Day Weather Forecast

Advertisements
Track Severe Weather on mobile